Weather at Teeswater (Dent Field)

Public forecast

Using degrees Celsius for public forecast. Weather courtesy of forecast.io.

Closest aviation weather report (METAR) to Teeswater (Dent Field)

Closest report is Wiarton Airport, 45.8 nm (84.9 km) N. Retrieved 2021/01/19 10:00 UTC (49 minutes ago):

CYVV 191000Z 27007G15KT 8SM -SN OVC025 M01/M04 A2984 RMK SC8 SLP115

Closest aviation forecast (TAF) to Teeswater (Dent Field)

Forecast is more than 12 hours old.

Closest forecast is Wiarton Airport, 45.8 nm (84.9 km) N. Retrieved 2021/01/18 20:00 UTC (15 hours ago):

TAF CYVV 181938Z 1820/1824 VRB03KT P6SM BKN050 RMK NXT FCST WILL BE ISSUED AT 191145Z